createdAt,value
2022-11-30T00:01:32.567Z,7.34
2022-11-30T00:04:00.533Z,7.31
2022-11-30T00:06:29.356Z,7.24
2022-11-30T00:08:59.372Z,7.21
2022-11-30T00:11:30.192Z,7.12
2022-11-30T00:14:00.607Z,7.17
2022-11-30T00:16:29.058Z,7.12
2022-11-30T00:18:57.927Z,7.11
2022-11-30T00:21:26.050Z,7.08
2022-11-30T00:23:54.443Z,7.11
2022-11-30T00:26:23.848Z,7.11
2022-11-30T00:28:52.262Z,7.09
2022-11-30T00:31:21.751Z,7.11
2022-11-30T00:33:49.780Z,7.07
2022-11-30T00:36:19.712Z,7.07
2022-11-30T00:38:48.403Z,7.11
2022-11-30T00:41:16.813Z,7.15
2022-11-30T00:43:46.707Z,7.12
2022-11-30T00:46:16.164Z,7.03
2022-11-30T00:48:44.095Z,7.04
2022-11-30T00:51:13.388Z,7.08
2022-11-30T00:53:43.011Z,7.03
2022-11-30T00:56:11.355Z,6.97
2022-11-30T00:58:39.290Z,7.01
2022-11-30T01:01:10.262Z,7.00
2022-11-30T01:03:38.570Z,6.98
2022-11-30T01:06:08.519Z,7.08
2022-11-30T01:08:37.808Z,7.08
2022-11-30T01:11:09.771Z,7.04
2022-11-30T01:13:37.777Z,7.04
2022-11-30T01:16:12.697Z,6.98
2022-11-30T01:18:44.274Z,7.04
2022-11-30T01:21:14.937Z,6.91
2022-11-30T01:23:43.523Z,6.91
2022-11-30T01:26:12.721Z,6.89
2022-11-30T01:28:41.163Z,6.91
2022-11-30T01:31:14.427Z,6.98
2022-11-30T01:33:43.178Z,6.97
2022-11-30T01:36:14.082Z,6.89
2022-11-30T01:38:44.657Z,6.98
2022-11-30T01:41:14.749Z,6.93
2022-11-30T01:43:45.665Z,6.80
2022-11-30T01:46:24.994Z,6.86
2022-11-30T01:49:01.804Z,6.79
2022-11-30T01:51:32.265Z,6.84
2022-11-30T01:54:01.882Z,6.81
2022-11-30T01:56:30.033Z,6.75
2022-11-30T01:58:58.676Z,6.79
2022-11-30T02:01:28.496Z,6.76
2022-11-30T02:04:00.388Z,6.75
2022-11-30T02:06:30.229Z,6.76
2022-11-30T02:08:58.363Z,6.80
2022-11-30T02:11:28.624Z,6.86
2022-11-30T02:14:07.780Z,6.81
2022-11-30T02:16:48.088Z,6.87
2022-11-30T02:19:38.709Z,6.89
2022-11-30T02:22:20.228Z,6.72
2022-11-30T02:25:03.525Z,6.75
2022-11-30T02:27:49.314Z,6.72
2022-11-30T02:30:22.200Z,6.66
2022-11-30T02:32:53.950Z,6.70
2022-11-30T02:35:26.621Z,6.80
2022-11-30T02:37:56.598Z,6.84
2022-11-30T02:40:25.543Z,6.90
2022-11-30T02:42:56.144Z,6.81
2022-11-30T02:45:35.831Z,6.83
2022-11-30T02:48:09.931Z,6.68
2022-11-30T02:50:42.239Z,6.72
2022-11-30T02:53:11.527Z,6.77
2022-11-30T02:55:39.476Z,6.72
2022-11-30T02:58:08.390Z,6.59
2022-11-30T03:00:37.794Z,6.56
2022-11-30T03:03:06.330Z,6.46
2022-11-30T03:05:34.782Z,6.46
2022-11-30T03:08:02.929Z,6.46
2022-11-30T03:10:30.851Z,6.49
2022-11-30T03:13:00.106Z,6.65
2022-11-30T03:15:28.348Z,6.53
2022-11-30T03:17:58.158Z,6.49
2022-11-30T03:20:26.272Z,6.52
2022-11-30T03:22:54.669Z,6.56
2022-11-30T03:25:24.874Z,6.65
2022-11-30T03:27:52.789Z,6.76
2022-11-30T03:30:22.258Z,6.80
2022-11-30T03:32:50.165Z,6.90
2022-11-30T03:35:20.531Z,6.81
2022-11-30T03:37:49.441Z,6.81
2022-11-30T03:40:17.453Z,6.83
2022-11-30T03:42:45.997Z,6.66
2022-11-30T03:45:14.363Z,6.44
2022-11-30T03:47:42.262Z,6.52
2022-11-30T03:50:11.349Z,6.59
2022-11-30T03:52:41.061Z,6.59
2022-11-30T03:55:09.906Z,6.68
2022-11-30T03:57:38.376Z,6.69
2022-11-30T04:00:09.200Z,6.72
2022-11-30T04:02:44.497Z,6.57
2022-11-30T04:05:13.964Z,6.62
2022-11-30T04:07:43.305Z,6.57
2022-11-30T04:10:13.072Z,6.59
2022-11-30T04:12:41.455Z,6.63
2022-11-30T04:15:10.736Z,6.61
2022-11-30T04:17:38.758Z,6.68
2022-11-30T04:20:09.286Z,6.56
2022-11-30T04:22:37.238Z,6.48
2022-11-30T04:25:07.855Z,6.50
2022-11-30T04:27:36.763Z,6.57
2022-11-30T04:30:06.028Z,6.63
2022-11-30T04:32:34.949Z,6.59
2022-11-30T04:35:02.911Z,6.69
2022-11-30T04:37:30.833Z,6.62
2022-11-30T04:39:59.777Z,6.50
2022-11-30T04:42:29.488Z,6.50
2022-11-30T04:44:57.491Z,6.49
2022-11-30T04:47:25.850Z,6.49
2022-11-30T04:49:54.407Z,6.52
2022-11-30T04:52:22.417Z,6.55
2022-11-30T04:54:51.540Z,6.49
2022-11-30T04:57:20.738Z,6.53
2022-11-30T04:59:49.997Z,6.53
2022-11-30T05:02:18.448Z,6.53
2022-11-30T05:04:47.215Z,6.62
2022-11-30T05:07:15.917Z,6.69
2022-11-30T05:09:43.828Z,6.75
2022-11-30T05:12:12.140Z,6.62
2022-11-30T05:14:40.648Z,6.56
2022-11-30T05:17:09.892Z,6.69
2022-11-30T05:19:38.259Z,6.72
2022-11-30T05:22:06.632Z,6.53
2022-11-30T05:24:34.548Z,6.52
2022-11-30T05:27:06.463Z,6.62
2022-11-30T05:29:38.068Z,6.57
2022-11-30T05:32:06.066Z,6.65
2022-11-30T05:34:49.638Z,6.44
2022-11-30T05:37:19.908Z,6.41
2022-11-30T05:39:47.849Z,6.39
2022-11-30T05:42:16.821Z,6.45
2022-11-30T05:44:45.454Z,6.44
2022-11-30T05:47:14.308Z,6.45
2022-11-30T05:49:44.551Z,6.44
2022-11-30T05:52:12.641Z,6.41
2022-11-30T05:54:41.449Z,6.56
2022-11-30T05:57:09.382Z,6.61
2022-11-30T05:59:37.815Z,6.52
2022-11-30T06:02:06.281Z,6.46
2022-11-30T06:04:34.787Z,6.44
2022-11-30T06:07:04.946Z,6.39
2022-11-30T06:09:32.863Z,6.37
2022-11-30T06:12:01.399Z,6.41
2022-11-30T06:14:29.823Z,6.35
2022-11-30T06:16:57.750Z,6.31
2022-11-30T06:19:27.511Z,6.35
2022-11-30T06:21:55.887Z,6.39
2022-11-30T06:24:25.234Z,6.41
2022-11-30T06:26:53.632Z,6.34
2022-11-30T06:29:22.276Z,6.32
2022-11-30T06:31:50.334Z,6.28
2022-11-30T06:34:18.839Z,6.18
2022-11-30T06:36:47.003Z,6.22
2022-11-30T06:39:14.897Z,6.22
2022-11-30T06:41:45.835Z,6.22
2022-11-30T06:44:15.932Z,6.24
2022-11-30T06:46:43.853Z,6.27
2022-11-30T06:49:12.672Z,6.34
2022-11-30T06:51:40.951Z,6.34
2022-11-30T06:54:09.123Z,6.18
2022-11-30T06:56:37.912Z,6.38
2022-11-30T06:59:07.585Z,6.34
2022-11-30T07:01:35.508Z,6.21
2022-11-30T07:04:03.935Z,6.24
2022-11-30T07:06:32.319Z,6.46
2022-11-30T07:09:00.356Z,6.53
2022-11-30T07:11:28.728Z,6.61
2022-11-30T07:13:56.712Z,6.55
2022-11-30T07:16:26.139Z,6.49
2022-11-30T07:18:54.811Z,6.49
2022-11-30T07:21:22.729Z,6.55
2022-11-30T07:24:08.840Z,6.59
2022-11-30T07:26:36.829Z,6.68
2022-11-30T07:29:05.349Z,6.63
2022-11-30T07:31:35.785Z,6.55
2022-11-30T07:34:06.853Z,6.63
2022-11-30T07:36:36.158Z,6.73
2022-11-30T07:39:04.633Z,6.49
2022-11-30T07:41:33.032Z,6.56
2022-11-30T07:44:06.128Z,6.41
2022-11-30T07:46:37.790Z,6.42
2022-11-30T07:49:06.871Z,6.55
2022-11-30T07:51:35.407Z,6.75
2022-11-30T07:54:03.839Z,6.75
2022-11-30T07:56:31.824Z,6.77
2022-11-30T07:59:02.743Z,6.76
2022-11-30T08:01:35.356Z,6.62
2022-11-30T08:04:03.924Z,6.73
2022-11-30T08:06:33.487Z,6.65
2022-11-30T08:09:04.346Z,6.69
2022-11-30T08:11:35.257Z,6.69
2022-11-30T08:14:04.222Z,6.80
2022-11-30T08:16:36.446Z,6.83
2022-11-30T08:19:05.982Z,6.81
2022-11-30T08:21:34.164Z,6.83
2022-11-30T08:24:02.657Z,6.94
2022-11-30T08:26:32.516Z,7.07
2022-11-30T08:29:03.076Z,6.98
2022-11-30T08:31:32.816Z,7.07
2022-11-30T08:34:02.932Z,7.01
2022-11-30T08:36:33.140Z,7.03
2022-11-30T08:39:05.346Z,6.91
2022-11-30T08:41:34.796Z,6.87
2022-11-30T08:44:03.218Z,6.61
2022-11-30T08:46:50.982Z,6.62
2022-11-30T08:49:22.980Z,6.63
2022-11-30T08:54:45.331Z,6.87
2022-11-30T08:57:14.366Z,6.97
2022-11-30T08:59:42.813Z,7.07
2022-11-30T09:02:11.134Z,7.15
2022-11-30T09:04:40.182Z,7.12
2022-11-30T09:07:09.624Z,6.80
2022-11-30T09:09:38.163Z,6.93
2022-11-30T09:12:07.266Z,7.01
2022-11-30T09:14:36.389Z,7.05
2022-11-30T09:17:05.357Z,7.04
2022-11-30T09:19:33.697Z,7.11
2022-11-30T09:22:01.630Z,7.19
2022-11-30T09:24:31.334Z,7.04
2022-11-30T09:26:59.739Z,7.04
2022-11-30T09:29:27.832Z,7.03
2022-11-30T09:31:56.225Z,6.77
2022-11-30T09:34:24.204Z,6.76
2022-11-30T09:36:52.102Z,6.79
2022-11-30T09:39:20.964Z,6.77
2022-11-30T09:42:19.293Z,6.56
2022-11-30T09:44:56.056Z,6.69
2022-11-30T09:47:40.353Z,6.65
2022-11-30T09:50:15.379Z,6.76
2022-11-30T09:52:46.898Z,6.77
2022-11-30T09:55:18.736Z,6.65
2022-11-30T09:57:52.425Z,6.63
2022-11-30T10:00:22.717Z,6.62
2022-11-30T10:02:52.110Z,6.81
2022-11-30T10:05:22.114Z,6.69
2022-11-30T10:08:05.836Z,6.66
2022-11-30T10:10:41.273Z,6.53
2022-11-30T10:13:27.845Z,6.52
2022-11-30T10:16:13.739Z,6.39
2022-11-30T10:18:52.758Z,6.46
2022-11-30T10:21:35.049Z,6.29
2022-11-30T10:24:16.009Z,6.42
2022-11-30T10:26:55.277Z,6.53
2022-11-30T10:29:32.555Z,6.50
2022-11-30T10:32:04.219Z,6.61
2022-11-30T10:34:35.759Z,6.49
2022-11-30T10:37:13.016Z,6.42
2022-11-30T10:39:47.743Z,6.42
2022-11-30T10:42:21.874Z,6.37
2022-11-30T10:45:00.302Z,6.46
2022-11-30T10:47:34.385Z,6.45
2022-11-30T10:50:02.555Z,6.42
2022-11-30T10:52:35.384Z,6.39
2022-11-30T10:55:05.214Z,6.45
2022-11-30T10:57:34.849Z,6.22
2022-11-30T11:00:07.459Z,6.22
2022-11-30T11:02:42.526Z,6.21
2022-11-30T11:05:17.371Z,6.07
2022-11-30T11:08:01.203Z,6.27
2022-11-30T11:10:35.375Z,6.35
2022-11-30T11:13:05.552Z,6.39
2022-11-30T11:15:36.397Z,6.37
2022-11-30T11:18:24.266Z,6.27
2022-11-30T11:21:05.871Z,6.44
2022-11-30T11:23:38.097Z,6.25
2022-11-30T11:26:07.619Z,6.37
2022-11-30T11:28:37.104Z,6.21
2022-11-30T11:31:19.918Z,6.14
2022-11-30T11:33:53.767Z,6.24
2022-11-30T11:36:28.691Z,6.29
2022-11-30T11:38:58.609Z,6.31
2022-11-30T11:41:29.779Z,6.45
2022-11-30T11:44:02.180Z,6.42
2022-11-30T11:46:33.393Z,6.48
2022-11-30T11:49:03.990Z,6.50
2022-11-30T11:51:34.315Z,6.44
2022-11-30T11:54:08.312Z,6.34
2022-11-30T11:56:38.164Z,6.32
2022-11-30T11:59:15.208Z,6.22
2022-11-30T12:01:58.872Z,6.29
2022-11-30T12:04:43.896Z,6.38
2022-11-30T12:07:21.077Z,6.20
2022-11-30T12:10:22.112Z,6.01
2022-11-30T12:12:57.205Z,6.21
2022-11-30T12:15:31.626Z,6.18
2022-11-30T12:18:14.354Z,6.35
2022-11-30T12:20:56.198Z,6.44
2022-11-30T12:23:47.619Z,6.32
2022-11-30T12:26:23.719Z,6.37
2022-11-30T12:29:13.731Z,6.61
2022-11-30T12:31:54.975Z,6.59
2022-11-30T12:34:38.936Z,6.38
2022-11-30T12:37:17.088Z,6.34
2022-11-30T12:39:56.764Z,6.22
2022-11-30T12:42:32.949Z,6.29
2022-11-30T12:45:11.228Z,6.31
2022-11-30T12:47:51.604Z,6.25
2022-11-30T12:50:43.247Z,6.18
2022-11-30T12:53:21.855Z,5.90
2022-11-30T12:56:02.165Z,5.94
2022-11-30T12:58:41.760Z,6.03
2022-11-30T13:01:21.647Z,6.25
2022-11-30T13:03:59.302Z,6.27
2022-11-30T13:06:34.262Z,6.29
2022-11-30T13:09:06.805Z,6.09
2022-11-30T13:11:38.412Z,6.06
2022-11-30T13:14:15.280Z,6.06
2022-11-30T13:16:44.328Z,6.14
2022-11-30T13:19:26.394Z,6.22
2022-11-30T13:22:00.517Z,6.09
2022-11-30T13:24:39.646Z,6.04
2022-11-30T13:27:16.209Z,5.99
2022-11-30T13:30:06.281Z,5.86
2022-11-30T13:35:44.041Z,6.03
2022-11-30T13:38:36.321Z,6.04
2022-11-30T13:41:08.313Z,6.10
2022-11-30T13:43:41.901Z,6.20
2022-11-30T13:46:16.548Z,6.21
2022-11-30T13:48:47.242Z,6.00
2022-11-30T13:51:35.626Z,5.97
2022-11-30T13:54:46.858Z,5.82
2022-11-30T13:57:40.386Z,5.70
2022-11-30T14:00:42.525Z,5.92
2022-11-30T14:03:29.307Z,5.96
2022-11-30T14:05:58.977Z,5.82
2022-11-30T14:08:38.644Z,5.86
2022-11-30T14:11:43.056Z,5.77
2022-11-30T14:14:48.017Z,5.67
2022-11-30T14:17:19.878Z,5.72
2022-11-30T14:19:53.992Z,5.70
2022-11-30T14:22:22.223Z,5.66
2022-11-30T14:24:51.120Z,5.69
2022-11-30T14:27:23.846Z,5.75
2022-11-30T14:29:57.677Z,5.85
2022-11-30T14:32:35.012Z,5.73
2022-11-30T14:35:11.182Z,5.76
2022-11-30T14:37:46.436Z,5.80
2022-11-30T14:40:19.462Z,5.87
2022-11-30T14:42:49.775Z,5.80
2022-11-30T14:45:21.871Z,5.73
2022-11-30T14:47:52.849Z,5.73
2022-11-30T14:50:26.829Z,5.69
2022-11-30T14:53:04.477Z,5.72
2022-11-30T14:55:39.059Z,5.77
2022-11-30T14:58:16.776Z,5.80
2022-11-30T15:00:47.013Z,5.82
2022-11-30T15:03:22.291Z,5.63
2022-11-30T15:05:55.340Z,5.59
2022-11-30T15:08:24.598Z,5.67
2022-11-30T15:10:52.972Z,5.69
2022-11-30T15:13:21.576Z,5.65
2022-11-30T15:15:55.300Z,5.67
2022-11-30T15:18:25.886Z,5.79
2022-11-30T15:21:00.393Z,5.65
2022-11-30T15:23:28.415Z,5.58
2022-11-30T15:26:00.076Z,5.66
2022-11-30T15:28:33.518Z,5.63
2022-11-30T15:31:05.978Z,5.58
2022-11-30T15:33:41.894Z,5.54
2022-11-30T15:36:23.476Z,5.49
2022-11-30T15:39:04.053Z,5.44
2022-11-30T15:41:34.200Z,5.56
2022-11-30T15:44:03.261Z,5.56
2022-11-30T15:46:37.640Z,5.49
2022-11-30T15:49:16.573Z,5.58
2022-11-30T15:51:48.700Z,5.58
2022-11-30T15:54:39.919Z,5.55
2022-11-30T15:57:09.381Z,5.55
2022-11-30T15:59:37.655Z,5.54
2022-11-30T16:02:09.189Z,5.54
2022-11-30T16:05:10.910Z,5.52
2022-11-30T16:07:52.415Z,5.59
2022-11-30T16:10:23.013Z,5.62
2022-11-30T16:12:53.869Z,5.60
2022-11-30T16:15:23.384Z,5.60
2022-11-30T16:17:51.998Z,5.58
2022-11-30T16:20:22.902Z,5.62
2022-11-30T16:22:52.317Z,5.54
2022-11-30T16:25:24.376Z,5.59
2022-11-30T16:27:53.034Z,5.62
2022-11-30T16:30:24.299Z,5.69
2022-11-30T16:32:52.884Z,5.65
2022-11-30T16:35:24.748Z,5.67
2022-11-30T16:37:54.177Z,5.65
2022-11-30T16:40:22.542Z,5.66
2022-11-30T16:42:52.356Z,5.56
2022-11-30T16:45:22.415Z,5.56
2022-11-30T16:47:51.947Z,5.63
2022-11-30T16:50:20.852Z,5.52
2022-11-30T16:52:49.253Z,5.59
2022-11-30T16:55:21.362Z,5.65
2022-11-30T16:57:50.769Z,5.51
2022-11-30T17:00:23.582Z,5.54
2022-11-30T17:02:57.768Z,5.49
2022-11-30T17:05:27.409Z,5.62
2022-11-30T17:07:56.283Z,5.63
2022-11-30T17:10:26.480Z,5.58
2022-11-30T17:12:54.526Z,5.54
2022-11-30T17:15:25.456Z,5.41
2022-11-30T17:17:58.161Z,5.47
2022-11-30T17:20:27.341Z,5.51
2022-11-30T17:22:55.754Z,5.65
2022-11-30T17:25:26.339Z,5.70
2022-11-30T17:27:54.312Z,5.69
2022-11-30T17:30:23.871Z,5.87
2022-11-30T17:32:52.493Z,5.73
2022-11-30T17:35:20.926Z,5.60
2022-11-30T17:37:49.411Z,5.63
2022-11-30T17:40:17.976Z,5.52
2022-11-30T17:42:47.290Z,5.60
2022-11-30T17:45:16.483Z,5.55
2022-11-30T17:47:44.804Z,5.49
2022-11-30T17:50:14.625Z,5.67
2022-11-30T17:52:43.053Z,5.60
2022-11-30T17:55:11.855Z,5.65
2022-11-30T17:57:40.016Z,5.65
2022-11-30T18:00:10.635Z,5.67
2022-11-30T18:02:39.562Z,5.69
2022-11-30T18:05:08.617Z,5.70
2022-11-30T18:07:36.684Z,5.69
2022-11-30T18:10:05.013Z,5.72
2022-11-30T18:12:33.875Z,5.66
2022-11-30T18:15:01.847Z,5.58
2022-11-30T18:17:32.369Z,5.55
2022-11-30T18:20:00.314Z,5.49
2022-11-30T18:22:29.260Z,5.59
2022-11-30T18:24:57.671Z,5.60
2022-11-30T18:27:26.508Z,5.67
2022-11-30T18:29:54.425Z,5.66
2022-11-30T18:32:23.319Z,5.47
2022-11-30T18:34:52.615Z,5.63
2022-11-30T18:37:20.995Z,5.58
2022-11-30T18:39:49.428Z,5.54
2022-11-30T18:42:18.194Z,5.55
2022-11-30T18:44:46.359Z,5.65
2022-11-30T18:47:15.349Z,5.69
2022-11-30T18:49:43.314Z,5.73
2022-11-30T18:52:13.511Z,5.66
2022-11-30T18:54:41.452Z,5.56
2022-11-30T18:57:09.503Z,5.54
2022-11-30T18:59:38.307Z,5.54
2022-11-30T19:02:06.366Z,5.49
2022-11-30T19:04:35.065Z,5.60
2022-11-30T19:07:03.925Z,5.51
2022-11-30T19:09:33.178Z,5.56
2022-11-30T19:12:01.563Z,5.59
2022-11-30T19:14:30.247Z,5.70
2022-11-30T19:17:00.550Z,5.66
2022-11-30T19:19:30.571Z,5.63
2022-11-30T19:21:58.914Z,5.69
2022-11-30T19:24:27.004Z,5.72
2022-11-30T19:26:56.254Z,5.87
2022-11-30T19:29:25.124Z,5.90
2022-11-30T19:31:53.029Z,5.77
2022-11-30T19:34:21.387Z,5.70
2022-11-30T19:36:50.223Z,5.76
2022-11-30T19:39:18.703Z,5.59
2022-11-30T19:41:47.800Z,5.60
2022-11-30T19:44:17.625Z,5.72
2022-11-30T19:46:45.658Z,5.67
2022-11-30T19:49:14.759Z,5.67
2022-11-30T19:51:43.636Z,5.73
2022-11-30T19:54:11.714Z,5.80
2022-11-30T19:56:41.830Z,5.75
2022-11-30T19:59:10.221Z,5.75
2022-11-30T20:01:39.644Z,5.75
2022-11-30T20:04:09.065Z,5.86
2022-11-30T20:06:39.141Z,5.86
2022-11-30T20:09:09.480Z,5.92
2022-11-30T20:11:37.923Z,6.00
2022-11-30T20:14:05.935Z,5.83
2022-11-30T20:16:34.345Z,5.89
2022-11-30T20:19:04.550Z,5.80
2022-11-30T20:21:34.637Z,5.77
2022-11-30T20:24:06.513Z,5.65
2022-11-30T20:26:36.441Z,5.60
2022-11-30T20:29:08.396Z,5.60
2022-11-30T20:31:38.446Z,5.59
2022-11-30T20:34:08.745Z,5.67
2022-11-30T20:36:38.176Z,5.48
2022-11-30T20:39:06.741Z,5.58
2022-11-30T20:41:35.497Z,5.67
2022-11-30T20:44:03.743Z,5.66
2022-11-30T20:46:34.049Z,5.56
2022-11-30T20:49:04.599Z,5.51
2022-11-30T20:51:34.860Z,5.54
2022-11-30T20:54:06.015Z,5.52
2022-11-30T20:56:35.186Z,5.65
2022-11-30T20:59:05.924Z,5.47
2022-11-30T21:01:34.819Z,5.63
2022-11-30T21:04:03.938Z,5.51
2022-11-30T21:06:33.950Z,5.56
2022-11-30T21:09:02.283Z,5.70
2022-11-30T21:11:30.755Z,5.73
2022-11-30T21:13:59.653Z,5.72
2022-11-30T21:16:30.106Z,5.52
2022-11-30T21:19:00.028Z,5.56
2022-11-30T21:21:30.784Z,5.56
2022-11-30T21:24:02.396Z,5.58
2022-11-30T21:26:32.409Z,5.63
2022-11-30T21:29:03.608Z,5.56
2022-11-30T21:31:32.345Z,5.44
2022-11-30T21:34:01.233Z,5.47
2022-11-30T21:36:30.143Z,5.51
2022-11-30T21:39:05.449Z,5.55
2022-11-30T21:41:36.375Z,5.56
2022-11-30T21:44:04.750Z,5.60
2022-11-30T21:46:32.899Z,5.56
2022-11-30T21:49:04.282Z,5.45
2022-11-30T21:51:33.148Z,5.55
2022-11-30T21:54:05.305Z,5.54
2022-11-30T21:56:34.565Z,5.66
2022-11-30T21:59:06.814Z,5.62
2022-11-30T22:01:36.985Z,5.60
2022-11-30T22:04:08.656Z,5.63
2022-11-30T22:06:38.230Z,5.63
2022-11-30T22:09:09.626Z,5.60
2022-11-30T22:11:39.432Z,5.63
2022-11-30T22:14:09.490Z,5.70
2022-11-30T22:16:37.527Z,5.69
2022-11-30T22:19:07.268Z,5.63
2022-11-30T22:21:36.742Z,5.66
2022-11-30T22:24:08.099Z,5.56
2022-11-30T22:26:38.191Z,5.59
2022-11-30T22:29:08.031Z,5.48
2022-11-30T22:31:39.678Z,5.60
2022-11-30T22:34:08.037Z,5.66
2022-11-30T22:36:37.598Z,5.65
2022-11-30T22:39:10.218Z,5.47
2022-11-30T22:41:38.468Z,5.42
2022-11-30T22:44:06.967Z,5.49
2022-11-30T22:46:37.645Z,5.51
2022-11-30T22:49:07.354Z,5.55
2022-11-30T22:51:38.167Z,5.49
2022-11-30T22:54:08.390Z,5.58
2022-11-30T22:56:38.929Z,5.52
2022-11-30T22:59:06.888Z,5.41
2022-11-30T23:01:37.096Z,5.47
2022-11-30T23:04:07.659Z,5.44
2022-11-30T23:06:36.792Z,5.51
2022-11-30T23:09:05.604Z,5.45
2022-11-30T23:11:35.798Z,5.66
2022-11-30T23:14:07.993Z,5.58
2022-11-30T23:16:37.724Z,5.54
2022-11-30T23:19:06.986Z,5.56
2022-11-30T23:21:41.598Z,5.76
2022-11-30T23:24:13.630Z,5.66
2022-11-30T23:26:44.285Z,5.60
2022-11-30T23:29:15.590Z,5.67
2022-11-30T23:31:46.117Z,5.76
2022-11-30T23:34:16.192Z,5.92
2022-11-30T23:36:44.745Z,5.65
2022-11-30T23:39:15.355Z,5.54
2022-11-30T23:41:46.107Z,5.42
2022-11-30T23:44:14.081Z,5.47
2022-11-30T23:46:43.154Z,5.47
2022-11-30T23:49:13.788Z,5.40
2022-11-30T23:51:41.691Z,5.30
2022-11-30T23:54:10.212Z,5.27
2022-11-30T23:56:39.030Z,5.35
2022-11-30T23:59:08.345Z,5.28
